createdAt,value
2017-11-13T00:02:27.484Z,36.60
2017-11-13T00:04:55.115Z,37.17
2017-11-13T00:07:22.924Z,34.23
2017-11-13T00:09:50.623Z,38.23
2017-11-13T00:12:18.645Z,42.80
2017-11-13T00:14:46.471Z,36.27
2017-11-13T00:17:14.219Z,31.40
2017-11-13T00:19:41.770Z,40.00
2017-11-13T00:22:09.492Z,34.67
2017-11-13T00:24:37.096Z,41.87
2017-11-13T00:27:04.681Z,36.13
2017-11-13T00:29:32.284Z,33.97
2017-11-13T00:31:59.907Z,38.83
2017-11-13T00:34:27.574Z,45.10
2017-11-13T00:36:55.192Z,38.87
2017-11-13T00:39:23.017Z,43.37
2017-11-13T00:41:50.639Z,37.17
2017-11-13T00:44:18.275Z,42.23
2017-11-13T00:46:46.474Z,43.00
2017-11-13T00:49:14.092Z,36.13
2017-11-13T00:51:41.699Z,36.60
2017-11-13T00:54:09.355Z,41.27
2017-11-13T00:56:36.946Z,39.13
2017-11-13T00:59:04.612Z,36.43
2017-11-13T01:01:32.251Z,39.77
2017-11-13T01:04:00.041Z,42.30
2017-11-13T01:06:27.806Z,40.73
2017-11-13T01:08:55.474Z,39.33
2017-11-13T01:11:24.752Z,41.57
2017-11-13T01:13:52.682Z,41.50
2017-11-13T01:16:20.419Z,47.47
2017-11-13T01:18:48.362Z,46.93
2017-11-13T01:21:16.029Z,42.10
2017-11-13T01:23:43.749Z,42.83
2017-11-13T01:26:11.504Z,44.50
2017-11-13T01:28:39.153Z,43.20
2017-11-13T01:31:06.765Z,48.87
2017-11-13T01:33:34.390Z,43.33
2017-11-13T01:36:02.104Z,42.40
2017-11-13T01:38:29.830Z,34.30
2017-11-13T01:40:57.601Z,38.67
2017-11-13T01:43:26.501Z,37.80
2017-11-13T01:45:54.117Z,36.13
2017-11-13T01:48:21.662Z,45.33
2017-11-13T01:50:49.346Z,42.13
2017-11-13T01:53:17.953Z,44.77
2017-11-13T01:55:45.579Z,41.00
2017-11-13T01:58:13.241Z,38.53
2017-11-13T02:00:41.324Z,41.23
2017-11-13T02:03:09.056Z,42.97
2017-11-13T02:05:36.786Z,43.40
2017-11-13T02:08:04.497Z,39.27
2017-11-13T02:10:32.096Z,42.17
2017-11-13T02:12:59.732Z,41.80
2017-11-13T02:15:27.364Z,42.43
2017-11-13T02:17:55.043Z,39.93
2017-11-13T02:20:22.720Z,39.63
2017-11-13T02:22:50.424Z,37.43
2017-11-13T02:25:18.067Z,37.60
2017-11-13T02:27:45.806Z,39.73
2017-11-13T02:30:13.559Z,33.53
2017-11-13T02:32:41.205Z,35.27
2017-11-13T02:35:08.821Z,38.50
2017-11-13T02:37:36.520Z,37.50
2017-11-13T02:40:04.112Z,41.30
2017-11-13T02:42:31.728Z,39.97
2017-11-13T02:44:59.606Z,41.67
2017-11-13T02:47:27.276Z,39.10
2017-11-13T02:49:54.862Z,40.83
2017-11-13T02:52:23.161Z,42.00
2017-11-13T02:54:50.821Z,38.70
2017-11-13T02:57:19.268Z,33.97
2017-11-13T02:59:46.876Z,40.60
2017-11-13T03:02:14.504Z,42.37
2017-11-13T03:04:42.114Z,45.30
2017-11-13T03:07:09.885Z,40.20
2017-11-13T03:09:37.521Z,43.00
2017-11-13T03:12:05.325Z,40.97
2017-11-13T03:14:32.874Z,44.23
2017-11-13T03:17:00.572Z,40.37
2017-11-13T03:19:28.118Z,42.43
2017-11-13T03:21:55.885Z,36.27
2017-11-13T03:24:23.483Z,34.43
2017-11-13T03:26:51.098Z,39.40
2017-11-13T03:29:18.727Z,37.20
2017-11-13T03:31:46.965Z,44.97
2017-11-13T03:34:14.734Z,45.93
2017-11-13T03:36:42.388Z,40.53
2017-11-13T03:39:10.016Z,41.17
2017-11-13T03:41:38.397Z,39.67
2017-11-13T03:44:06.183Z,44.40
2017-11-13T03:46:33.813Z,41.03
2017-11-13T03:49:01.353Z,41.90
2017-11-13T03:51:28.924Z,38.83
2017-11-13T03:53:56.541Z,41.47
2017-11-13T03:56:24.105Z,38.60
2017-11-13T03:58:51.660Z,37.47
2017-11-13T04:01:19.241Z,36.30
2017-11-13T04:03:47.034Z,46.73
2017-11-13T04:06:14.732Z,34.43
2017-11-13T04:08:42.392Z,43.30
2017-11-13T04:11:10.021Z,41.83
2017-11-13T04:13:37.855Z,37.63
2017-11-13T04:16:05.478Z,45.37
2017-11-13T04:18:33.092Z,41.50
2017-11-13T04:21:01.654Z,44.27
2017-11-13T04:23:29.630Z,45.20
2017-11-13T04:25:57.978Z,38.93
2017-11-13T04:28:25.512Z,39.43
2017-11-13T04:30:53.153Z,40.40
2017-11-13T04:33:20.939Z,36.90
2017-11-13T04:35:48.524Z,41.37
2017-11-13T04:38:16.117Z,36.13
2017-11-13T04:40:43.681Z,41.73
2017-11-13T04:43:11.439Z,44.87
2017-11-13T04:45:39.106Z,44.33
2017-11-13T04:48:06.744Z,37.50
2017-11-13T04:50:34.380Z,43.70
2017-11-13T04:53:02.006Z,37.50
2017-11-13T04:55:31.361Z,41.53
2017-11-13T04:57:58.992Z,42.30
2017-11-13T05:00:26.624Z,39.43
2017-11-13T05:02:54.261Z,36.30
2017-11-13T05:05:22.676Z,36.03
2017-11-13T05:07:50.319Z,41.90
2017-11-13T05:10:17.928Z,41.50
2017-11-13T05:12:45.524Z,35.30
2017-11-13T05:15:13.166Z,39.97
2017-11-13T05:17:40.935Z,31.90
2017-11-13T05:20:08.566Z,35.10
2017-11-13T05:22:36.235Z,48.40
2017-11-13T05:25:03.867Z,41.03
2017-11-13T05:27:32.203Z,38.73
2017-11-13T05:29:59.904Z,38.63
2017-11-13T05:32:27.552Z,38.80
2017-11-13T05:34:55.507Z,38.80
2017-11-13T05:37:23.117Z,39.73
2017-11-13T05:39:50.872Z,38.20
2017-11-13T05:42:18.429Z,51.97
2017-11-13T05:44:46.025Z,42.80
2017-11-13T05:47:13.669Z,38.80
2017-11-13T05:49:41.257Z,42.20
2017-11-13T05:52:09.138Z,47.30
2017-11-13T05:54:36.744Z,58.13
2017-11-13T05:57:04.355Z,52.47
2017-11-13T05:59:32.145Z,50.00
2017-11-13T06:01:59.759Z,43.30
2017-11-13T06:04:27.544Z,46.60
2017-11-13T06:06:55.143Z,49.80
2017-11-13T06:09:22.721Z,53.53
2017-11-13T06:11:50.269Z,49.07
2017-11-13T06:14:18.204Z,46.53
2017-11-13T06:16:46.048Z,50.07
2017-11-13T06:19:13.662Z,48.13
2017-11-13T06:21:41.291Z,51.70
2017-11-13T06:24:08.987Z,50.20
2017-11-13T06:26:36.612Z,48.63
2017-11-13T06:29:04.163Z,58.53
2017-11-13T06:31:31.748Z,50.90
2017-11-13T06:33:59.288Z,51.80
2017-11-13T06:36:27.037Z,55.77
2017-11-13T06:38:54.697Z,50.17
2017-11-13T06:41:22.232Z,55.10
2017-11-13T06:43:49.825Z,38.27
2017-11-13T06:46:17.433Z,39.10
2017-11-13T06:48:45.084Z,42.77
2017-11-13T06:51:12.943Z,37.73
2017-11-13T06:53:40.546Z,39.33
2017-11-13T06:56:08.091Z,31.67
2017-11-13T06:58:35.663Z,40.00
2017-11-13T07:01:03.235Z,38.10
2017-11-13T07:03:31.509Z,32.90
2017-11-13T07:05:59.689Z,32.47
2017-11-13T07:08:27.408Z,29.87
2017-11-13T07:10:55.004Z,26.30
2017-11-13T07:13:22.662Z,23.83
2017-11-13T07:15:52.120Z,21.67
2017-11-13T07:18:20.247Z,23.17
2017-11-13T07:20:48.789Z,19.70
2017-11-13T07:23:16.461Z,31.20
2017-11-13T07:25:44.378Z,21.43
2017-11-13T07:28:11.940Z,20.93
2017-11-13T07:30:39.587Z,23.30
2017-11-13T07:33:07.371Z,24.77
2017-11-13T07:35:34.908Z,26.57
2017-11-13T07:38:07.911Z,18.00
2017-11-13T07:40:38.387Z,24.90
2017-11-13T07:43:07.903Z,36.67
2017-11-13T07:45:38.839Z,35.07
2017-11-13T07:48:18.608Z,22.60
2017-11-13T07:50:46.236Z,26.43
2017-11-13T07:53:13.823Z,26.30
2017-11-13T07:55:41.400Z,25.00
2017-11-13T07:58:08.939Z,27.93
2017-11-13T08:00:36.528Z,25.73
2017-11-13T08:03:04.066Z,25.03
2017-11-13T08:05:31.709Z,20.40
2017-11-13T08:07:59.353Z,27.07
2017-11-13T08:10:27.479Z,32.97
2017-11-13T08:12:55.887Z,23.13
2017-11-13T08:15:23.497Z,24.97
2017-11-13T08:17:51.256Z,24.10
2017-11-13T08:20:18.818Z,27.57
2017-11-13T08:22:46.500Z,26.57
2017-11-13T08:25:14.040Z,22.37
2017-11-13T08:27:41.866Z,20.43
2017-11-13T08:30:10.086Z,26.50
2017-11-13T08:32:38.437Z,20.83
2017-11-13T08:35:07.676Z,18.23
2017-11-13T08:37:35.358Z,17.63
2017-11-13T08:40:03.211Z,20.37
2017-11-13T08:42:31.718Z,19.10
2017-11-13T08:45:00.088Z,18.03
2017-11-13T08:47:28.491Z,22.10
2017-11-13T08:49:56.199Z,20.23
2017-11-13T08:52:23.904Z,23.63
2017-11-13T08:54:51.531Z,20.67
2017-11-13T08:57:19.327Z,21.53
2017-11-13T08:59:47.447Z,20.50
2017-11-13T09:02:15.430Z,19.50
2017-11-13T09:04:43.027Z,21.43
2017-11-13T09:07:10.633Z,23.30
2017-11-13T09:09:38.244Z,19.10
2017-11-13T09:12:05.862Z,20.70
2017-11-13T09:14:33.510Z,22.70
2017-11-13T09:17:01.187Z,26.37
2017-11-13T09:19:28.796Z,17.43
2017-11-13T09:21:56.400Z,19.83
2017-11-13T09:24:24.029Z,18.67
2017-11-13T09:26:51.637Z,21.47
2017-11-13T09:29:19.244Z,15.40
2017-11-13T09:31:46.897Z,19.50
2017-11-13T09:34:14.444Z,16.60
2017-11-13T09:39:15.669Z,14.87
2017-11-13T09:41:45.478Z,11.60
2017-11-13T09:47:43.720Z,13.47
2017-11-13T09:50:11.514Z,16.27
2017-11-13T09:52:40.261Z,13.67
2017-11-13T09:55:13.804Z,16.10
2017-11-13T09:57:42.332Z,13.40
2017-11-13T10:00:17.815Z,16.60
2017-11-13T10:02:47.203Z,19.60
2017-11-13T10:05:16.779Z,20.10
2017-11-13T10:07:46.996Z,15.87
2017-11-13T10:10:15.360Z,16.13
2017-11-13T10:12:43.844Z,14.20
2017-11-13T10:15:11.417Z,21.50
2017-11-13T10:17:39.042Z,14.40
2017-11-13T10:20:06.665Z,16.30
2017-11-13T10:22:34.417Z,16.53
2017-11-13T10:25:02.252Z,16.53
2017-11-13T10:27:29.899Z,18.10
2017-11-13T10:29:57.727Z,18.30
2017-11-13T10:32:25.491Z,14.60
2017-11-13T10:34:53.024Z,13.77
2017-11-13T10:37:20.616Z,20.87
2017-11-13T10:39:48.234Z,12.90
2017-11-13T10:42:15.813Z,15.43
2017-11-13T10:44:44.734Z,16.50
2017-11-13T10:47:12.361Z,18.50
2017-11-13T10:49:40.884Z,18.77
2017-11-13T10:52:08.658Z,20.00
2017-11-13T10:54:37.385Z,20.30
2017-11-13T10:57:05.015Z,18.70
2017-11-13T10:59:32.612Z,20.03
2017-11-13T11:02:00.267Z,18.60
2017-11-13T11:04:30.090Z,20.37
2017-11-13T11:06:57.765Z,22.17
2017-11-13T11:09:25.973Z,17.27
2017-11-13T11:11:54.157Z,18.03
2017-11-13T11:14:35.478Z,15.60
2017-11-13T11:17:18.031Z,15.50
2017-11-13T11:19:49.667Z,14.60
2017-11-13T11:22:31.104Z,16.10
2017-11-13T11:24:58.760Z,11.90
2017-11-13T11:27:30.004Z,16.90
2017-11-13T11:30:00.080Z,12.00
2017-11-13T11:32:30.269Z,11.33
2017-11-13T11:35:03.405Z,10.20
2017-11-13T11:37:33.081Z,9.80
2017-11-13T11:40:00.876Z,12.83
2017-11-13T11:42:29.517Z,11.63
2017-11-13T11:44:57.666Z,16.47
2017-11-13T11:47:25.994Z,10.33
2017-11-13T11:49:53.607Z,13.53
2017-11-13T11:52:21.301Z,12.33
2017-11-13T11:54:50.817Z,14.53
2017-11-13T11:57:20.921Z,17.07
2017-11-13T11:59:49.446Z,14.33
2017-11-13T12:02:17.113Z,12.93
2017-11-13T12:04:44.757Z,11.10
2017-11-13T12:07:12.409Z,13.67
2017-11-13T12:09:40.027Z,10.00
2017-11-13T12:12:07.812Z,11.83
2017-11-13T12:14:35.428Z,12.63
2017-11-13T12:17:03.173Z,13.20
2017-11-13T12:19:30.730Z,11.77
2017-11-13T12:21:58.323Z,13.63
2017-11-13T12:24:25.914Z,11.57
2017-11-13T12:26:53.560Z,9.67
2017-11-13T12:29:21.359Z,13.53
2017-11-13T12:31:49.084Z,10.87
2017-11-13T12:34:16.671Z,11.63
2017-11-13T12:36:44.281Z,12.07
2017-11-13T12:39:12.049Z,11.67
2017-11-13T12:41:39.611Z,14.93
2017-11-13T12:44:07.237Z,9.03
2017-11-13T12:46:35.755Z,10.70
2017-11-13T12:49:03.524Z,12.50
2017-11-13T12:51:31.902Z,11.53
2017-11-13T12:53:59.582Z,11.43
2017-11-13T12:56:27.476Z,12.80
2017-11-13T12:58:55.280Z,11.40
2017-11-13T13:01:22.972Z,32.80
2017-11-13T13:03:50.557Z,14.73
2017-11-13T13:06:18.171Z,14.90
2017-11-13T13:08:45.860Z,14.60
2017-11-13T13:11:13.418Z,16.67
2017-11-13T13:13:41.039Z,17.27
2017-11-13T13:16:08.623Z,17.47
2017-11-13T13:18:36.197Z,15.33
2017-11-13T13:21:04.059Z,12.73
2017-11-13T13:23:31.653Z,15.03
2017-11-13T13:25:59.224Z,18.20
2017-11-13T13:28:27.010Z,19.40
2017-11-13T13:30:55.415Z,14.83
2017-11-13T13:33:23.015Z,18.77
2017-11-13T13:35:51.412Z,14.57
2017-11-13T13:38:19.098Z,15.87
2017-11-13T13:40:46.878Z,15.03
2017-11-13T13:43:14.906Z,22.33
2017-11-13T13:45:42.824Z,17.50
2017-11-13T13:48:10.424Z,22.53
2017-11-13T13:50:38.217Z,27.00
2017-11-13T13:53:05.902Z,20.83
2017-11-13T13:55:33.522Z,17.13
2017-11-13T13:58:01.160Z,15.40
2017-11-13T14:00:28.816Z,18.53
2017-11-13T14:02:56.638Z,12.40
2017-11-13T14:05:24.236Z,9.93
2017-11-13T14:07:51.847Z,12.57
2017-11-13T14:10:19.459Z,15.73
2017-11-13T14:12:47.107Z,11.70
2017-11-13T14:15:14.747Z,12.00
2017-11-13T14:17:42.338Z,14.53
2017-11-13T14:20:10.102Z,14.20
2017-11-13T14:22:37.919Z,14.80
2017-11-13T14:25:06.144Z,11.20
2017-11-13T14:27:33.743Z,15.60
2017-11-13T14:30:01.383Z,13.53
2017-11-13T14:32:28.982Z,9.80
2017-11-13T14:34:56.530Z,10.67
2017-11-13T14:37:24.127Z,14.20
2017-11-13T14:39:51.720Z,8.03
2017-11-13T14:42:19.271Z,10.23
2017-11-13T14:44:47.051Z,16.47
2017-11-13T14:47:14.733Z,10.30
2017-11-13T14:49:42.390Z,11.40
2017-11-13T14:52:10.227Z,15.73
2017-11-13T14:54:37.834Z,11.23
2017-11-13T14:57:05.434Z,19.13
2017-11-13T14:59:33.013Z,12.53
2017-11-13T15:02:00.609Z,10.10
2017-11-13T15:04:28.228Z,10.37
2017-11-13T15:06:55.805Z,35.63
2017-11-13T15:09:23.445Z,25.13
2017-11-13T15:11:50.991Z,30.13
2017-11-13T15:14:18.532Z,26.57
2017-11-13T15:16:46.147Z,17.50
2017-11-13T15:19:13.703Z,13.33
2017-11-13T15:21:41.523Z,14.27
2017-11-13T15:24:09.121Z,17.60
2017-11-13T15:26:36.925Z,14.70
2017-11-13T15:29:04.562Z,10.97
2017-11-13T15:31:32.273Z,17.73
2017-11-13T15:34:00.068Z,14.70
2017-11-13T15:36:27.838Z,33.77
2017-11-13T15:38:55.423Z,38.77
2017-11-13T15:41:23.020Z,44.40
2017-11-13T15:43:50.572Z,58.90
2017-11-13T15:46:18.211Z,69.10
2017-11-13T15:48:45.959Z,55.53
2017-11-13T15:51:13.780Z,44.73
2017-11-13T15:53:41.414Z,39.47
2017-11-13T15:56:08.952Z,36.90
2017-11-13T15:58:36.718Z,38.47
2017-11-13T16:01:04.342Z,27.33
2017-11-13T16:03:31.906Z,27.80
2017-11-13T16:05:59.522Z,25.80
2017-11-13T16:08:27.178Z,22.93
2017-11-13T16:10:54.943Z,21.20
2017-11-13T16:13:22.572Z,20.37
2017-11-13T16:15:50.198Z,22.60
2017-11-13T16:18:17.754Z,16.30
2017-11-13T16:20:45.596Z,19.70
2017-11-13T16:23:13.287Z,26.40
2017-11-13T16:25:41.083Z,29.80
2017-11-13T16:28:08.723Z,23.10
2017-11-13T16:30:36.332Z,25.43
2017-11-13T16:33:04.172Z,22.00
2017-11-13T16:35:31.754Z,26.50
2017-11-13T16:37:59.368Z,32.03
2017-11-13T16:40:26.989Z,44.97
2017-11-13T16:42:54.638Z,49.03
2017-11-13T16:45:22.367Z,54.60
2017-11-13T16:47:49.932Z,48.07
2017-11-13T16:50:17.558Z,60.03
2017-11-13T16:52:45.137Z,60.43
2017-11-13T16:55:12.912Z,46.47
2017-11-13T16:57:41.050Z,44.10
2017-11-13T17:00:08.904Z,46.30
2017-11-13T17:02:36.524Z,32.57
2017-11-13T17:05:04.788Z,35.20
2017-11-13T17:07:32.364Z,30.70
2017-11-13T17:09:59.939Z,25.07
2017-11-13T17:12:27.496Z,36.77
2017-11-13T17:14:55.184Z,24.97
2017-11-13T17:17:22.745Z,23.97
2017-11-13T17:19:51.179Z,32.57
2017-11-13T17:22:18.824Z,35.40
2017-11-13T17:24:46.344Z,32.10
2017-11-13T17:27:13.940Z,36.53
2017-11-13T17:29:42.293Z,44.13
2017-11-13T17:32:09.928Z,53.83
2017-11-13T17:34:37.492Z,46.43
2017-11-13T17:37:05.063Z,67.30
2017-11-13T17:39:32.654Z,66.93
2017-11-13T17:42:00.418Z,66.47
2017-11-13T17:44:28.017Z,80.60
2017-11-13T17:46:55.631Z,50.10
2017-11-13T17:49:23.212Z,57.83
2017-11-13T17:51:50.740Z,55.50
2017-11-13T17:54:18.764Z,78.40
2017-11-13T17:56:46.449Z,71.70
2017-11-13T17:59:14.011Z,44.00
2017-11-13T18:01:41.640Z,62.30
2017-11-13T18:04:09.224Z,70.17
2017-11-13T18:06:38.040Z,49.00
2017-11-13T18:09:05.796Z,55.20
2017-11-13T18:11:34.338Z,61.57
2017-11-13T18:14:01.886Z,79.63
2017-11-13T18:16:29.532Z,62.87
2017-11-13T18:18:58.046Z,63.73
2017-11-13T18:21:25.634Z,66.43
2017-11-13T18:23:53.469Z,80.67
2017-11-13T18:26:21.087Z,72.53
2017-11-13T18:28:48.624Z,74.43
2017-11-13T18:31:16.334Z,91.67
2017-11-13T18:33:43.910Z,94.40
2017-11-13T18:36:11.468Z,84.13
2017-11-13T18:38:39.060Z,73.17
2017-11-13T18:41:06.658Z,81.00
2017-11-13T18:43:34.329Z,59.80
2017-11-13T18:46:01.992Z,60.90
2017-11-13T18:48:29.566Z,52.93
2017-11-13T18:50:57.327Z,48.20
2017-11-13T18:53:25.321Z,50.10
2017-11-13T18:55:52.971Z,55.80
2017-11-13T18:58:20.525Z,59.43
2017-11-13T19:00:48.708Z,63.90
2017-11-13T19:03:18.043Z,55.53
2017-11-13T19:05:45.595Z,61.97
2017-11-13T19:08:13.209Z,65.33
2017-11-13T19:10:40.773Z,59.37
2017-11-13T19:13:08.372Z,63.77
2017-11-13T19:15:36.009Z,78.03
2017-11-13T19:18:03.641Z,82.87
2017-11-13T19:20:31.242Z,68.53
2017-11-13T19:22:58.879Z,84.30
2017-11-13T19:25:26.679Z,80.57
2017-11-13T19:27:54.270Z,88.10
2017-11-13T19:30:21.864Z,96.87
2017-11-13T19:32:49.508Z,93.87
2017-11-13T19:35:17.108Z,132.10
2017-11-13T19:37:44.808Z,149.63
2017-11-13T19:40:12.358Z,136.87
2017-11-13T19:42:40.151Z,156.80
2017-11-13T19:45:08.212Z,138.00
2017-11-13T19:47:36.834Z,126.00
2017-11-13T19:50:04.734Z,134.50
2017-11-13T19:52:32.312Z,113.43
2017-11-13T19:54:59.922Z,111.23
2017-11-13T19:57:27.474Z,137.10
2017-11-13T19:59:55.092Z,129.97
2017-11-13T20:02:22.773Z,126.13
2017-11-13T20:04:50.369Z,130.67
2017-11-13T20:07:18.918Z,138.53
2017-11-13T20:09:46.536Z,139.00
2017-11-13T20:12:14.182Z,137.27
2017-11-13T20:14:41.767Z,142.70
2017-11-13T20:17:09.501Z,144.53
2017-11-13T20:19:37.053Z,159.67
2017-11-13T20:22:04.630Z,139.77
2017-11-13T20:24:32.257Z,104.10
2017-11-13T20:26:59.849Z,131.03
2017-11-13T20:29:27.465Z,122.77
2017-11-13T20:31:55.075Z,155.80
2017-11-13T20:34:22.686Z,170.77
2017-11-13T20:36:50.320Z,180.33
2017-11-13T20:39:17.919Z,185.03
2017-11-13T20:41:45.515Z,174.13
2017-11-13T20:44:13.157Z,166.87
2017-11-13T20:46:40.845Z,191.63
2017-11-13T20:49:08.492Z,198.77
2017-11-13T20:51:37.344Z,218.27
2017-11-13T20:54:05.474Z,216.90
2017-11-13T20:56:33.291Z,205.80
2017-11-13T20:59:00.899Z,191.40
2017-11-13T21:01:29.349Z,170.80
2017-11-13T21:03:57.184Z,177.27
2017-11-13T21:06:24.756Z,169.90
2017-11-13T21:08:52.369Z,140.87
2017-11-13T21:11:20.177Z,134.70
2017-11-13T21:13:47.759Z,115.63
2017-11-13T21:16:15.367Z,111.13
2017-11-13T21:18:43.774Z,105.60
2017-11-13T21:21:11.316Z,91.53
2017-11-13T21:23:38.930Z,105.43
2017-11-13T21:26:07.340Z,109.63
2017-11-13T21:28:34.986Z,112.87
2017-11-13T21:31:03.459Z,124.60
2017-11-13T21:33:31.046Z,144.83
2017-11-13T21:35:58.639Z,127.97
2017-11-13T21:38:26.292Z,110.40
2017-11-13T21:40:54.149Z,113.17
2017-11-13T21:43:21.980Z,106.00
2017-11-13T21:45:49.767Z,93.53
2017-11-13T21:48:17.408Z,76.33
2017-11-13T21:50:45.020Z,76.27
2017-11-13T21:53:12.615Z,93.47
2017-11-13T21:55:40.286Z,84.07
2017-11-13T21:58:07.879Z,80.67
2017-11-13T22:00:35.463Z,75.50
2017-11-13T22:03:03.017Z,77.93
2017-11-13T22:05:30.781Z,69.77
2017-11-13T22:07:58.680Z,72.60
2017-11-13T22:10:27.391Z,70.93
2017-11-13T22:12:54.933Z,73.80
2017-11-13T22:15:22.511Z,74.57
2017-11-13T22:17:50.061Z,70.73
2017-11-13T22:20:23.162Z,74.20
2017-11-13T22:22:50.756Z,82.43
2017-11-13T22:25:18.310Z,87.27
2017-11-13T22:27:45.860Z,82.67
2017-11-13T22:30:13.575Z,102.27
2017-11-13T22:32:41.100Z,106.03
2017-11-13T22:35:08.723Z,112.17
2017-11-13T22:37:36.299Z,107.00
2017-11-13T22:40:03.867Z,105.97
2017-11-13T22:42:31.446Z,108.07
2017-11-13T22:44:59.126Z,106.00
2017-11-13T22:47:26.699Z,94.17
2017-11-13T22:49:54.234Z,106.73
2017-11-13T22:52:21.841Z,94.63
2017-11-13T22:54:49.424Z,89.53
2017-11-13T22:57:17.023Z,89.43
2017-11-13T22:59:44.594Z,100.43
2017-11-13T23:02:12.276Z,102.00
2017-11-13T23:04:39.824Z,103.20
2017-11-13T23:07:07.626Z,97.23
2017-11-13T23:09:35.200Z,99.83
2017-11-13T23:12:02.734Z,99.37
2017-11-13T23:14:30.296Z,93.93
2017-11-13T23:16:57.944Z,100.20
2017-11-13T23:19:25.515Z,94.13
2017-11-13T23:21:53.047Z,87.13
2017-11-13T23:24:20.619Z,82.13
2017-11-13T23:26:48.142Z,85.50
2017-11-13T23:29:15.660Z,74.33
2017-11-13T23:31:43.253Z,76.60
2017-11-13T23:34:10.771Z,78.90
2017-11-13T23:36:39.240Z,72.13
2017-11-13T23:39:07.475Z,67.47
2017-11-13T23:41:35.029Z,79.13
2017-11-13T23:44:02.554Z,73.60
2017-11-13T23:46:30.259Z,56.30
2017-11-13T23:48:57.802Z,52.30
2017-11-13T23:51:25.356Z,61.60
2017-11-13T23:53:53.009Z,57.37
2017-11-13T23:56:20.593Z,47.40
2017-11-13T23:58:48.217Z,50.13
